Currently 54°F in Pinon Hills, California, USA
54°F
56°F / 52°F
1 mph W
0.00"
Friday, October 20, 2017 1:57 AM PDT

Pinon Hills, California Climate Summary
Typical October Day

Normal High:    75.9°F (24.4°C)
Normal Low:    54.1°F (12.3°C)
Average:    64.5°F (18.1°C)

Hour    Temperature    Wind Speed    Humidity
12:00 AM    59°F (15°C)    2 mph    43%
1:00 AM    59°F (15°C)    3 mph    42%
2:00 AM    58°F (15°C)    3 mph    43%
3:00 AM    58°F (14°C)    3 mph    43%
4:00 AM    57°F (14°C)    2 mph    43%
5:00 AM    57°F (14°C)    2 mph    43%
6:00 AM    57°F (14°C)    2 mph    44%
7:00 AM    57°F (14°C)    2 mph    43%
8:00 AM    61°F (16°C)    1 mph    39%
9:00 AM    66°F (19°C)    2 mph    35%
10:00 AM    68°F (20°C)    2 mph    32%
11:00 AM    70°F (21°C)    3 mph    29%
12:00 PM    72°F (22°C)    4 mph    27%
1:00 PM    73°F (23°C)    4 mph    25%
2:00 PM    75°F (24°C)    4 mph    23%
3:00 PM    75°F (24°C)    4 mph    23%
4:00 PM    75°F (24°C)    4 mph    24%
5:00 PM    73°F (23°C)    3 mph    25%
6:00 PM    70°F (21°C)    3 mph    29%
7:00 PM    65°F (18°C)    2 mph    34%
8:00 PM    63°F (17°C)    3 mph    36%
9:00 PM    62°F (17°C)    3 mph    38%
10:00 PM    61°F (16°C)    3 mph    39%
11:00 PM    60°F (16°C)    3 mph    40%
 

The Pinon Hills, California weather pages are a service of WeatherCurrents.
Copyright ©Fri Oct 20 01:58:06 PDT 2017  WeatherCurrents. All rights reserved. - Submit questions and comments - Privacy Policy